Time;durP1;ratioP1;P1;durP2;ratioP2;P2;SDS_P1;SDS_P2;PMS_P1;PMS_P2;Temp;Humidity;BMP_temperature;BMP_pressure;BME280_temperature;BME280_humidity;BME280_pressure;Samples;Min_cycle;Max_cycle;Signal;HPM_P1;HPM_P2
2022/10/31 00:01:01;;;;;;;37.38;19.42;;;;;;;18.13;63.17;101499.88;4933704;28;98928;-71
2022/10/31 00:03:27;;;;;;;32.97;19.05;;;;;;;18.44;62.63;101505.28;4930764;28;100722;-73
2022/10/31 00:05:54;;;;;;;37.33;18.05;;;;;;;18.61;62.32;101505.22;4931716;28;99064;-71
2022/10/31 00:08:20;;;;;;;45.03;19.77;;;;;;;18.53;62.18;101507.41;4931444;28;97257;-71
2022/10/31 00:10:48;;;;;;;34.67;19.30;;;;;;;18.46;62.14;101516.75;4932815;28;97835;-72
2022/10/31 00:13:15;;;;;;;39.22;18.58;;;;;;;18.17;62.80;101513.03;4935023;28;99973;-72
2022/10/31 00:15:42;;;;;;;37.97;18.23;;;;;;;18.11;63.30;101517.84;4930580;28;98958;-71
2022/10/31 00:18:09;;;;;;;37.42;17.98;;;;;;;17.98;63.84;101520.31;4930818;28;96841;-71
2022/10/31 00:20:36;;;;;;;36.85;18.48;;;;;;;17.70;64.39;101520.94;4931849;28;96972;-71
2022/10/31 00:23:04;;;;;;;36.53;17.88;;;;;;;17.83;64.20;101524.69;4930511;28;97938;-71
2022/10/31 00:25:35;;;;;;;37.63;18.83;;;;;;;17.72;64.58;101521.69;4932442;28;98872;-71
2022/10/31 00:28:03;;;;;;;35.63;18.80;;;;;;;17.76;65.04;101525.94;4934205;28;96813;-72
2022/10/31 00:30:29;;;;;;;34.22;17.10;;;;;;;17.79;64.41;101528.44;4932724;28;98241;-71
2022/10/31 00:32:56;;;;;;;30.52;17.50;;;;;;;17.86;64.18;101524.50;4932822;28;98916;-73
2022/10/31 00:35:22;;;;;;;31.63;17.45;;;;;;;17.99;63.82;101522.03;4931641;28;101090;-71
2022/10/31 00:37:49;;;;;;;34.83;17.67;;;;;;;18.00;63.64;101526.44;4931120;28;97688;-71
2022/10/31 00:40:15;;;;;;;30.00;16.67;;;;;;;17.86;63.74;101528.97;4933181;28;97454;-72
2022/10/31 00:42:42;;;;;;;32.42;17.17;;;;;;;17.90;64.00;101522.53;4931196;28;99034;-72
2022/10/31 00:45:11;;;;;;;34.22;17.70;;;;;;;17.55;65.03;101535.06;4930677;28;98900;-71
2022/10/31 00:47:38;;;;;;;34.35;16.95;;;;;;;17.71;64.55;101536.03;4932940;28;97051;-72
2022/10/31 00:50:05;;;;;;;31.23;16.50;;;;;;;17.69;64.72;101540.56;4928910;28;97639;-72
2022/10/31 00:52:32;;;;;;;37.28;17.67;;;;;;;18.02;63.76;101534.38;4930510;28;99373;-71
2022/10/31 00:54:58;;;;;;;28.42;16.98;;;;;;;18.06;63.57;101543.94;4931649;28;98407;-71
2022/10/31 00:57:24;;;;;;;29.33;16.52;;;;;;;17.74;64.03;101540.31;4931256;28;96896;-73
2022/10/31 00:59:51;;;;;;;35.38;17.38;;;;;;;17.73;64.01;101549.28;4928686;28;98923;-71
2022/10/31 01:02:19;;;;;;;32.58;18.10;;;;;;;17.83;63.73;101543.41;4929325;28;99073;-71
2022/10/31 01:04:45;;;;;;;24.52;15.23;;;;;;;17.79;64.06;101548.97;4932206;28;103101;-71
2022/10/31 01:07:13;;;;;;;32.22;14.90;;;;;;;17.91;64.33;101543.00;4933950;28;96831;-72
2022/10/31 01:09:40;;;;;;;33.15;15.43;;;;;;;17.86;64.57;101553.91;4931323;28;96962;-71
2022/10/31 01:12:07;;;;;;;30.75;14.48;;;;;;;17.98;63.92;101546.19;4934524;28;100668;-71
2022/10/31 01:14:33;;;;;;;28.00;15.15;;;;;;;18.07;63.61;101554.56;4928012;28;99507;-72
2022/10/31 01:17:00;;;;;;;29.17;14.57;;;;;;;18.11;64.26;101547.28;4929457;28;96784;-71
2022/10/31 01:19:27;;;;;;;29.52;13.70;;;;;;;18.33;63.59;101554.03;4930774;28;98030;-71
2022/10/31 01:21:55;;;;;;;24.90;14.20;;;;;;;18.17;64.05;101549.59;4931156;28;98670;-71
2022/10/31 01:24:21;;;;;;;27.60;14.18;;;;;;;18.21;63.71;101556.50;4928409;28;98867;-70
2022/10/31 01:26:48;;;;;;;25.92;14.15;;;;;;;18.41;63.06;101558.09;4933062;28;99356;-71
2022/10/31 01:29:14;;;;;;;30.92;13.55;;;;;;;18.38;62.77;101553.75;4930871;28;98404;-71
2022/10/31 01:31:41;;;;;;;25.27;13.88;;;;;;;18.58;62.54;101547.34;4929116;28;100712;-71
2022/10/31 01:34:07;;;;;;;24.20;14.38;;;;;;;18.28;62.58;101541.84;4931139;28;97720;-71
2022/10/31 01:36:37;;;;;;;35.33;14.73;;;;;;;18.27;62.62;101549.00;4928563;28;96974;-70
2022/10/31 01:39:06;;;;;;;25.63;13.88;;;;;;;17.98;62.99;101551.56;4930584;28;99196;-71
2022/10/31 01:41:34;;;;;;;32.58;14.50;;;;;;;17.84;63.35;101560.31;4931011;28;99438;-71
2022/10/31 01:44:03;;;;;;;24.95;13.88;;;;;;;17.83;63.28;101556.75;4928230;28;99141;-70
2022/10/31 01:46:33;;;;;;;29.13;14.95;;;;;;;17.82;63.18;101563.03;4931183;28;96824;-70
2022/10/31 01:49:04;;;;;;;23.58;14.00;;;;;;;18.17;62.38;101549.59;4932049;28;97004;-72
2022/10/31 01:51:34;;;;;;;23.88;13.95;;;;;;;18.13;62.23;101551.56;4929369;28;98295;-71
2022/10/31 01:54:05;;;;;;;31.35;13.65;;;;;;;17.96;62.61;101556.97;4931014;28;98742;-71
2022/10/31 01:56:33;;;;;;;24.02;13.25;;;;;;;17.64;63.37;101566.69;4931872;28;96871;-72
2022/10/31 01:59:02;;;;;;;22.35;13.13;;;;;;;17.50;63.97;101567.38;4924619;28;97584;-71
2022/10/31 02:01:29;;;;;;;26.42;14.20;;;;;;;17.39;64.41;101568.84;4931225;28;99084;-71
2022/10/31 02:03:56;;;;;;;28.05;14.80;;;;;;;17.33;64.47;101564.66;4930437;28;100313;-71
2022/10/31 02:06:32;;;;;;;26.77;13.27;;;;;;;17.47;64.20;101561.28;4931134;28;99094;-72
2022/10/31 02:09:00;;;;;;;21.23;14.33;;;;;;;17.53;63.87;101566.31;4930214;28;97107;-71
2022/10/31 02:11:29;;;;;;;32.58;15.15;;;;;;;17.50;63.83;101564.69;4934077;28;99190;-71
2022/10/31 02:13:55;;;;;;;24.58;13.77;;;;;;;17.65;63.41;101568.41;4930257;28;98426;-70
2022/10/31 02:16:21;;;;;;;28.00;13.23;;;;;;;17.77;62.83;101562.44;4935177;28;96863;-71
2022/10/31 02:18:48;;;;;;;27.27;14.43;;;;;;;17.57;63.44;101575.94;4940788;28;97472;-71
2022/10/31 02:21:19;;;;;;;26.90;13.45;;;;;;;17.60;63.34;101567.72;4932567;28;99543;-71
2022/10/31 02:24:11;;;;;;;26.50;13.50;;;;;;;17.46;64.04;101568.44;4928550;28;99459;-70
2022/10/31 02:27:04;;;;;;;28.42;13.48;;;;;;;17.63;63.37;101569.44;4933069;28;96865;-70
2022/10/31 02:29:54;;;;;;;25.73;12.93;;;;;;;17.57;63.55;101559.03;4927927;28;96966;-71
2022/10/31 02:32:28;;;;;;;29.35;13.25;;;;;;;17.41;63.84;101561.59;4933599;28;99143;-71
2022/10/31 02:35:01;;;;;;;24.73;13.60;;;;;;;17.49;63.35;101562.09;4931226;28;99093;-70
2022/10/31 02:37:37;;;;;;;21.98;12.07;;;;;;;17.08;64.49;101565.03;4934488;28;96784;-71
2022/10/31 02:40:10;;;;;;;21.20;11.90;;;;;;;16.99;64.89;101562.84;4932792;28;97988;-70
2022/10/31 02:42:47;;;;;;;30.17;13.13;;;;;;;17.07;64.76;101565.09;4932264;28;101841;-70
2022/10/31 02:45:22;;;;;;;27.23;12.88;;;;;;;17.10;64.65;101564.97;4931598;28;98282;-71
2022/10/31 02:47:51;;;;;;;30.25;13.70;;;;;;;16.99;64.99;101561.97;4926467;28;97199;-71
2022/10/31 02:50:22;;;;;;;22.63;13.20;;;;;;;16.94;65.25;101574.66;4934982;28;96860;-70
2022/10/31 02:52:51;;;;;;;30.95;12.32;;;;;;;16.77;65.64;101574.63;4932944;28;99346;-70
2022/10/31 02:55:56;;;;;;;27.02;12.75;;;;;;;17.00;65.01;101577.06;4933746;28;99864;-71
2022/10/31 02:58:26;;;;;;;29.23;12.82;;;;;;;16.83;65.45;101577.84;4915909;28;98831;-71
2022/10/31 03:01:14;;;;;;;35.13;12.68;;;;;;;16.83;65.47;101583.19;4930780;28;97062;-70
2022/10/31 03:03:58;;;;;;;26.08;13.13;;;;;;;16.71;65.98;101587.31;4930805;28;99576;-71
2022/10/31 03:06:32;;;;;;;21.42;11.48;;;;;;;17.11;65.36;101588.06;4934158;28;97739;-71
2022/10/31 03:09:10;;;;;;;22.35;12.23;;;;;;;17.17;64.94;101589.56;4934389;28;97249;-71
2022/10/31 03:11:44;;;;;;;19.88;11.82;;;;;;;17.32;63.95;101580.78;4934872;28;98735;-70
2022/10/31 03:14:16;;;;;;;22.55;11.93;;;;;;;17.03;64.32;101591.09;4929129;28;98979;-70
2022/10/31 03:16:47;;;;;;;28.27;11.23;;;;;;;17.10;64.70;101597.88;4931563;28;100325;-71
2022/10/31 03:19:19;;;;;;;23.38;12.32;;;;;;;17.31;63.95;101589.75;4933311;28;97609;-71
2022/10/31 03:21:49;;;;;;;23.92;11.75;;;;;;;17.02;64.53;101596.50;4934309;28;96944;-71
2022/10/31 03:24:17;;;;;;;24.40;11.75;;;;;;;16.79;65.20;101597.63;4932682;28;99074;-71
2022/10/31 03:26:48;;;;;;;29.77;11.70;;;;;;;16.82;65.42;101597.47;4930568;28;98863;-71
2022/10/31 03:29:19;;;;;;;25.80;12.20;;;;;;;16.91;65.16;101599.72;4930232;28;97575;-73
2022/10/31 03:31:50;;;;;;;23.17;11.70;;;;;;;17.23;64.53;101606.16;4934677;28;97784;-74
2022/10/31 03:34:20;;;;;;;23.10;11.85;;;;;;;17.27;63.88;101605.03;4929342;28;101426;-72
2022/10/31 03:36:51;;;;;;;22.42;12.93;;;;;;;17.13;64.61;101620.91;4933822;28;99386;-71
2022/10/31 03:39:21;;;;;;;28.48;12.07;;;;;;;17.05;65.04;101623.09;4929895;28;96820;-71
2022/10/31 03:41:54;;;;;;;23.08;11.15;;;;;;;17.07;64.68;101626.53;4934131;28;96852;-71
2022/10/31 03:44:23;;;;;;;26.85;12.50;;;;;;;16.98;64.88;101625.19;4932183;28;101801;-71
2022/10/31 03:46:49;;;;;;;24.85;11.95;;;;;;;17.19;64.27;101627.75;4933088;28;99481;-72
2022/10/31 03:49:18;;;;;;;31.00;13.02;;;;;;;17.06;64.64;101622.16;4932353;28;96856;-71
2022/10/31 03:51:48;;;;;;;30.52;12.35;;;;;;;17.06;64.77;101630.16;4932722;28;97278;-71
2022/10/31 03:54:21;;;;;;;28.05;11.40;;;;;;;17.53;63.60;101636.66;4929869;28;99370;-70
2022/10/31 03:56:52;;;;;;;21.73;11.25;;;;;;;17.20;63.92;101630.31;4933859;28;99103;-71
2022/10/31 03:59:25;;;;;;;21.33;11.80;;;;;;;16.88;65.09;101631.88;4932711;28;97705;-70
2022/10/31 04:01:55;;;;;;;21.65;11.50;;;;;;;17.23;64.13;101634.66;4933549;28;97284;-72
2022/10/31 04:04:23;;;;;;;26.20;11.88;;;;;;;17.18;64.27;101634.03;4930952;28;98998;-71
2022/10/31 04:06:53;;;;;;;22.83;10.95;;;;;;;17.07;64.52;101629.19;4931596;28;98130;-71
2022/10/31 04:09:21;;;;;;;23.60;11.95;;;;;;;16.93;64.75;101627.22;4934517;28;96880;-72
2022/10/31 04:11:52;;;;;;;26.63;12.20;;;;;;;17.12;64.27;101636.06;4932727;28;96872;-71
2022/10/31 04:14:18;;;;;;;24.38;11.75;;;;;;;17.16;64.30;101636.75;4931002;28;97638;-71
2022/10/31 04:16:45;;;;;;;24.95;11.82;;;;;;;17.18;64.00;101636.69;4933049;28;97661;-72
2022/10/31 04:19:12;;;;;;;21.90;11.93;;;;;;;17.27;64.08;101636.22;4932904;28;96903;-70
2022/10/31 04:21:43;;;;;;;23.30;11.00;;;;;;;16.90;64.53;101640.69;4934086;28;96898;-71
2022/10/31 04:24:09;;;;;;;20.58;11.18;;;;;;;16.82;64.89;101637.50;4933097;28;98861;-71
2022/10/31 04:26:36;;;;;;;21.85;12.45;;;;;;;17.20;64.18;101640.16;4933678;28;98060;-71
2022/10/31 04:29:03;;;;;;;21.92;10.80;;;;;;;17.11;64.20;101647.69;4934679;28;96860;-71
2022/10/31 04:31:30;;;;;;;27.20;11.30;;;;;;;17.18;63.76;101647.38;4932316;28;97759;-71
2022/10/31 04:33:56;;;;;;;22.98;11.18;;;;;;;17.21;63.63;101648.09;4932784;28;99034;-70
2022/10/31 04:36:23;;;;;;;23.58;10.95;;;;;;;16.87;64.52;101643.50;4933997;28;98255;-71
2022/10/31 04:38:51;;;;;;;22.50;10.73;;;;;;;17.10;64.18;101645.94;4933250;28;98596;-70
2022/10/31 04:41:17;;;;;;;26.45;10.65;;;;;;;17.22;64.06;101649.81;4933239;28;96872;-71
2022/10/31 04:43:44;;;;;;;24.90;11.30;;;;;;;17.28;63.37;101648.66;4931330;28;99075;-71
2022/10/31 04:46:10;;;;;;;24.17;10.55;;;;;;;17.02;64.16;101648.13;4932233;28;101543;-71
2022/10/31 04:48:36;;;;;;;22.15;11.43;;;;;;;17.18;64.10;101658.06;4929509;28;97943;-71
2022/10/31 04:51:04;;;;;;;24.75;11.07;;;;;;;17.28;63.78;101648.66;4931898;28;96882;-71
2022/10/31 04:53:31;;;;;;;22.85;10.48;;;;;;;17.34;62.91;101648.34;4929771;28;101625;-71
2022/10/31 04:56:00;;;;;;;18.38;10.00;;;;;;;16.96;63.90;101647.53;4932731;28;101391;-71
2022/10/31 04:58:27;;;;;;;25.25;11.70;;;;;;;17.11;63.73;101657.50;4931293;28;97603;-72
2022/10/31 05:00:53;;;;;;;27.02;12.02;;;;;;;17.02;63.77;101650.78;4930999;28;96795;-71
2022/10/31 05:03:20;;;;;;;21.02;11.63;;;;;;;17.23;63.33;101656.91;4932172;28;99583;-72
2022/10/31 05:05:46;;;;;;;22.02;11.40;;;;;;;17.04;63.71;101664.94;4927992;28;97618;-72
2022/10/31 05:08:13;;;;;;;25.02;11.02;;;;;;;16.86;64.07;101655.13;4931911;28;97027;-71
2022/10/31 05:10:39;;;;;;;27.92;10.90;;;;;;;16.87;64.19;101651.50;4937101;28;96946;-71
2022/10/31 05:13:07;;;;;;;29.55;14.02;;;;;;;17.22;63.20;101655.16;4930375;28;99477;-72
2022/10/31 05:15:34;;;;;;;20.90;11.07;;;;;;;17.00;63.64;101660.66;4931467;28;98958;-73
2022/10/31 05:18:00;;;;;;;17.63;10.77;;;;;;;17.16;63.64;101657.25;4930772;28;96754;-70
2022/10/31 05:20:30;;;;;;;21.55;10.82;;;;;;;16.95;64.11;101664.50;4931486;28;98842;-71
2022/10/31 05:22:58;;;;;;;19.98;10.27;;;;;;;17.03;63.73;101659.66;4930124;28;98373;-71
2022/10/31 05:25:26;;;;;;;24.45;14.10;;;;;;;17.15;63.76;101661.72;4930692;28;99028;-71
2022/10/31 05:27:55;;;;;;;19.90;11.95;;;;;;;17.37;63.35;101666.91;4931473;28;97616;-71
2022/10/31 05:30:25;;;;;;;26.00;12.43;;;;;;;17.44;63.03;101671.88;4931402;28;96805;-71
2022/10/31 05:32:52;;;;;;;36.70;11.27;;;;;;;17.39;63.07;101667.72;4929717;28;99922;-71
2022/10/31 05:35:20;;;;;;;23.95;11.63;;;;;;;17.44;63.11;101671.88;4930684;28;98837;-72
2022/10/31 05:37:47;;;;;;;27.10;11.82;;;;;;;17.25;63.83;101671.06;4933567;28;96846;-71
2022/10/31 05:40:19;;;;;;;23.58;12.05;;;;;;;17.42;63.87;101673.75;4927241;28;97433;-72
2022/10/31 05:42:45;;;;;;;20.60;10.48;;;;;;;17.12;63.90;101670.78;4929836;28;99149;-71
2022/10/31 05:45:14;;;;;;;26.60;10.40;;;;;;;17.27;63.89;101684.31;4930051;28;98749;-72
2022/10/31 05:47:42;;;;;;;22.40;10.48;;;;;;;17.40;63.51;101677.44;4931864;28;96829;-72
2022/10/31 05:50:10;;;;;;;18.45;10.45;;;;;;;17.22;63.66;101678.31;4931064;28;96881;-72
2022/10/31 05:52:36;;;;;;;22.95;11.18;;;;;;;17.21;63.60;101672.13;4931931;28;98879;-72
2022/10/31 05:55:03;;;;;;;23.55;13.90;;;;;;;17.19;63.31;101678.50;4931043;28;98830;-72
2022/10/31 05:57:30;;;;;;;24.63;11.15;;;;;;;17.14;63.35;101681.38;4932034;28;96860;-71
2022/10/31 05:59:56;;;;;;;18.63;10.23;;;;;;;17.00;63.99;101681.19;4931603;28;98889;-71
2022/10/31 06:02:23;;;;;;;20.00;10.85;;;;;;;16.78;64.56;101680.44;4933838;28;98889;-71
2022/10/31 06:04:50;;;;;;;30.83;12.10;;;;;;;17.23;64.47;101683.59;4931961;28;100043;-70
2022/10/31 06:07:17;;;;;;;31.73;12.55;;;;;;;17.19;64.62;101687.38;4929523;28;97969;-71
2022/10/31 06:09:43;;;;;;;21.85;11.93;;;;;;;17.24;65.04;101685.34;4932036;28;98707;-71
2022/10/31 06:12:09;;;;;;;36.17;11.95;;;;;;;17.10;64.98;101688.66;4932165;28;99011;-70
2022/10/31 06:14:36;;;;;;;29.13;12.35;;;;;;;17.12;65.01;101696.63;4924562;28;98991;-72
2022/10/31 06:17:02;;;;;;;28.92;13.00;;;;;;;17.26;64.91;101688.81;4926291;28;97076;-71
2022/10/31 06:19:28;;;;;;;30.55;12.63;;;;;;;17.21;65.39;101695.28;4928832;28;98124;-72
2022/10/31 06:21:56;;;;;;;28.40;12.50;;;;;;;17.20;65.46;101699.75;4931838;28;100439;-72
2022/10/31 06:24:23;;;;;;;25.08;12.27;;;;;;;17.26;64.98;101694.16;4927348;28;98963;-72
2022/10/31 06:26:49;;;;;;;22.70;12.68;;;;;;;17.34;64.77;101693.75;4929833;28;96789;-71
2022/10/31 06:29:16;;;;;;;28.35;12.80;;;;;;;17.45;64.37;101697.66;4929679;28;96994;-72
2022/10/31 06:31:42;;;;;;;25.63;12.73;;;;;;;17.49;64.28;101703.72;4931223;28;98331;-72
2022/10/31 06:34:08;;;;;;;29.55;12.68;;;;;;;17.50;64.42;101692.09;4925932;28;99232;-72
2022/10/31 06:36:35;;;;;;;24.60;12.23;;;;;;;17.42;64.66;101707.63;4929610;28;96894;-71
2022/10/31 06:39:02;;;;;;;28.40;12.68;;;;;;;17.66;64.12;101709.09;4932220;28;96969;-71
2022/10/31 06:41:29;;;;;;;24.88;12.68;;;;;;;17.69;64.07;101705.44;4931485;28;97989;-71
2022/10/31 06:43:55;;;;;;;37.50;13.80;;;;;;;17.56;64.39;101715.81;4931312;28;97636;-70
2022/10/31 06:46:21;;;;;;;26.38;13.10;;;;;;;17.43;64.99;101718.22;4930320;28;96887;-70
2022/10/31 06:48:48;;;;;;;25.50;12.63;;;;;;;17.44;65.26;101725.31;4932148;28;96943;-71
2022/10/31 06:51:14;;;;;;;27.60;13.05;;;;;;;17.41;65.35;101719.25;4930728;28;102371;-71
2022/10/31 06:53:40;;;;;;;30.77;13.10;;;;;;;17.59;65.18;101721.00;4931198;28;98228;-71
2022/10/31 06:56:08;;;;;;;27.40;13.00;;;;;;;17.64;64.75;101719.03;4930747;28;97100;-70
2022/10/31 06:58:35;;;;;;;34.22;12.70;;;;;;;17.88;63.97;101731.16;4927006;28;96961;-71
2022/10/31 07:01:02;;;;;;;25.02;13.75;;;;;;;17.73;64.55;101739.94;4931781;28;97868;-72
2022/10/31 07:03:28;;;;;;;26.08;12.80;;;;;;;17.61;64.69;101737.88;4934687;28;101266;-71
2022/10/31 07:05:55;;;;;;;28.60;12.70;;;;;;;17.83;63.93;101735.88;4934256;28;96919;-72
2022/10/31 07:08:22;;;;;;;29.08;13.35;;;;;;;17.95;63.72;101747.75;4934848;28;96772;-72
2022/10/31 07:10:53;;;;;;;26.83;12.52;;;;;;;18.02;63.38;101738.50;4932203;28;99042;-73
2022/10/31 07:13:24;;;;;;;26.20;12.38;;;;;;;18.19;62.93;101745.63;4932163;28;100084;-71
2022/10/31 07:15:51;;;;;;;32.13;13.52;;;;;;;18.27;62.55;101744.31;4928632;28;98594;-71
2022/10/31 07:18:17;;;;;;;31.92;12.00;;;;;;;18.40;62.37;101747.22;4932062;28;97321;-71
2022/10/31 07:20:44;;;;;;;28.92;12.57;;;;;;;18.51;61.97;101747.50;4930086;28;100574;-71
2022/10/31 07:23:11;;;;;;;31.63;12.95;;;;;;;18.63;61.59;101741.56;4931953;28;98899;-71
2022/10/31 07:25:38;;;;;;;27.35;12.98;;;;;;;18.68;61.29;101744.84;4930042;28;96848;-71
2022/10/31 07:28:05;;;;;;;33.33;12.95;;;;;;;18.81;61.22;101753.09;4930890;28;96948;-71
2022/10/31 07:30:33;;;;;;;38.30;13.52;;;;;;;18.77;61.37;101748.00;4931162;28;100659;-72
2022/10/31 07:33:00;;;;;;;26.90;14.07;;;;;;;18.74;61.26;101751.69;4932296;28;100412;-72
2022/10/31 07:35:28;;;;;;;28.55;14.35;;;;;;;18.78;61.49;101749.69;4934178;28;96783;-74
2022/10/31 07:37:55;;;;;;;35.40;14.40;;;;;;;18.89;61.19;101752.69;4933248;28;98703;-72
2022/10/31 07:40:23;;;;;;;29.27;14.80;;;;;;;18.70;61.74;101753.66;4933458;28;102766;-71
2022/10/31 07:42:51;;;;;;;34.70;14.32;;;;;;;18.40;63.03;101754.38;4933240;28;98987;-72
2022/10/31 07:45:19;;;;;;;30.42;14.75;;;;;;;18.61;62.49;101764.84;4932652;28;97216;-71
2022/10/31 07:47:48;;;;;;;29.83;14.90;;;;;;;18.70;62.05;101764.38;4932839;28;96857;-72
2022/10/31 07:50:18;;;;;;;28.80;15.27;;;;;;;18.81;61.56;101770.97;4934494;28;98352;-71
2022/10/31 07:52:44;;;;;;;43.63;16.88;;;;;;;18.73;62.13;101773.19;4934729;28;98887;-71
2022/10/31 07:55:12;;;;;;;35.53;15.82;;;;;;;18.59;62.45;101774.78;4934596;28;96772;-72
2022/10/31 07:57:39;;;;;;;38.22;15.70;;;;;;;18.61;62.31;101780.91;4934950;28;97389;-72
2022/10/31 08:00:07;;;;;;;30.83;15.13;;;;;;;18.68;62.21;101782.31;4934525;28;101913;-71
2022/10/31 08:02:34;;;;;;;32.97;15.23;;;;;;;18.86;61.76;101782.28;4923201;28;99022;-74
2022/10/31 08:05:02;;;;;;;37.53;16.05;;;;;;;18.80;61.98;101786.16;4929206;28;97107;-72
2022/10/31 08:07:29;;;;;;;33.75;17.25;;;;;;;18.94;61.24;101782.75;4930082;28;96891;-72
2022/10/31 08:09:56;;;;;;;31.13;16.60;;;;;;;18.76;61.89;101787.28;4930825;28;99303;-71
2022/10/31 08:12:26;;;;;;;39.33;17.02;;;;;;;18.84;61.46;101787.72;4931284;28;98824;-71
2022/10/31 08:14:53;;;;;;;33.67;17.95;;;;;;;18.85;61.80;101778.75;4931891;28;97149;-72
2022/10/31 08:17:19;;;;;;;39.00;17.75;;;;;;;18.63;62.32;101786.19;4931770;28;97007;-72
2022/10/31 08:19:46;;;;;;;34.55;17.67;;;;;;;18.63;62.30;101784.38;4930749;28;97508;-72
2022/10/31 08:22:14;;;;;;;35.28;18.02;;;;;;;18.85;61.62;101783.22;4932799;28;98111;-71
2022/10/31 08:24:40;;;;;;;36.15;17.92;;;;;;;18.65;62.43;101795.00;4931622;28;96846;-72
2022/10/31 08:27:06;;;;;;;36.35;17.45;;;;;;;18.54;62.33;101800.03;4930409;28;97284;-72
2022/10/31 08:29:33;;;;;;;37.72;16.48;;;;;;;18.78;61.81;101805.91;4931075;28;98309;-71
2022/10/31 08:32:00;;;;;;;47.80;17.92;;;;;;;18.48;62.95;101803.88;4932779;28;97521;-72
2022/10/31 08:34:26;;;;;;;43.38;19.67;;;;;;;18.61;62.14;101796.13;4930235;28;96955;-71
2022/10/31 08:36:52;;;;;;;41.58;17.42;;;;;;;18.52;62.41;101808.13;4934447;28;97469;-72
2022/10/31 08:39:20;;;;;;;36.67;18.70;;;;;;;18.84;61.71;101792.22;4930390;28;99054;-71
2022/10/31 08:41:47;;;;;;;39.80;18.50;;;;;;;18.90;61.65;101795.44;4932020;28;97711;-71
2022/10/31 08:44:15;;;;;;;40.72;18.13;;;;;;;18.94;61.28;101794.31;4931840;28;97894;-71
2022/10/31 08:46:41;;;;;;;37.78;18.00;;;;;;;19.40;59.92;101787.31;4932608;28;96950;-72
2022/10/31 08:49:08;;;;;;;37.97;17.70;;;;;;;19.58;59.22;101784.56;4929477;28;99881;-71
2022/10/31 08:51:34;;;;;;;35.67;18.25;;;;;;;19.77;58.61;101782.56;4931249;28;98878;-71
2022/10/31 08:54:01;;;;;;;35.55;18.33;;;;;;;19.59;58.63;101786.31;4931453;28;96958;-71
2022/10/31 08:56:29;;;;;;;46.08;17.73;;;;;;;19.34;59.59;101789.47;4932903;28;97116;-71
2022/10/31 08:58:56;;;;;;;42.67;19.88;;;;;;;19.10;60.54;101797.03;4930422;28;98981;-73
2022/10/31 09:01:22;;;;;;;33.90;17.77;;;;;;;19.25;60.38;101793.50;4931710;28;99049;-72
2022/10/31 09:03:48;;;;;;;35.83;18.35;;;;;;;19.49;59.61;101788.66;4930734;28;96892;-71
2022/10/31 09:06:15;;;;;;;42.75;19.88;;;;;;;19.60;59.34;101798.75;4929923;28;97797;-71
2022/10/31 09:08:41;;;;;;;37.15;18.88;;;;;;;19.42;60.11;101796.16;4931047;28;98944;-71
2022/10/31 09:11:08;;;;;;;41.38;18.60;;;;;;;19.69;59.30;101801.78;4931350;28;98885;-72
2022/10/31 09:13:35;;;;;;;39.05;18.77;;;;;;;19.22;60.19;101801.72;4931503;28;96960;-71
2022/10/31 09:16:02;;;;;;;39.95;19.45;;;;;;;19.70;59.08;101802.63;4931401;28;97269;-71
2022/10/31 09:18:28;;;;;;;37.95;19.48;;;;;;;19.65;59.21;101799.38;4931374;28;99285;-71
2022/10/31 09:20:57;;;;;;;44.05;19.95;;;;;;;19.86;58.58;101809.75;4930306;28;102209;-72
2022/10/31 09:23:24;;;;;;;46.83;19.83;;;;;;;19.89;58.32;101814.91;4928838;28;100032;-72
2022/10/31 09:25:52;;;;;;;37.65;21.55;;;;;;;19.85;58.72;101802.63;4931172;28;96930;-72
2022/10/31 09:28:21;;;;;;;37.58;20.05;;;;;;;19.62;59.05;101807.59;4929183;28;99446;-71
2022/10/31 09:30:51;;;;;;;47.70;19.30;;;;;;;19.46;59.60;101816.50;4931098;28;98860;-72
2022/10/31 09:33:18;;;;;;;36.90;20.65;;;;;;;19.33;60.44;101812.72;4932479;28;97286;-73
2022/10/31 09:35:45;;;;;;;39.17;19.50;;;;;;;19.51;59.70;101816.22;4930764;28;97145;-72
2022/10/31 09:38:14;;;;;;;41.65;20.15;;;;;;;19.42;60.08;101820.25;4930868;28;99229;-72
2022/10/31 09:40:42;;;;;;;37.45;19.90;;;;;;;19.80;59.38;101822.63;4930446;28;98856;-72
2022/10/31 09:43:16;;;;;;;46.95;20.48;;;;;;;19.57;59.81;101825.72;4933042;28;96766;-71
2022/10/31 09:45:53;;;;;;;44.33;20.63;;;;;;;19.56;60.00;101824.84;4926504;28;97317;-73
2022/10/31 09:48:34;;;;;;;37.20;21.80;;;;;;;19.21;61.28;101836.66;4929508;28;99053;-71
2022/10/31 09:51:05;;;;;;;40.03;21.08;;;;;;;19.35;60.89;101832.28;4930545;28;99321;-73
2022/10/31 09:53:37;;;;;;;46.67;21.08;;;;;;;19.69;60.26;101833.94;4931927;28;97086;-72
2022/10/31 09:56:07;;;;;;;44.85;21.60;;;;;;;20.30;58.34;101825.91;4930282;28;96845;-71
2022/10/31 09:58:40;;;;;;;40.22;21.92;;;;;;;20.66;57.20;101825.59;4931115;28;98983;-73
2022/10/31 10:01:21;;;;;;;41.65;21.00;;;;;;;20.98;56.14;101820.06;4929744;28;98939;-73
2022/10/31 10:03:52;;;;;;;48.00;21.42;;;;;;;21.21;55.29;101815.94;4930941;28;96794;-73
2022/10/31 10:06:23;;;;;;;46.80;22.08;;;;;;;21.11;55.14;101822.84;4931318;28;97537;-72
2022/10/31 10:08:49;;;;;;;50.30;23.00;;;;;;;21.02;55.25;101821.59;4930613;28;98920;-73
2022/10/31 10:11:32;;;;;;;48.08;21.63;;;;;;;21.24;54.99;101816.63;4929979;28;99070;-73
2022/10/31 10:14:12;;;;;;;43.42;22.77;;;;;;;21.22;55.00;101823.06;4931064;28;97902;-73
2022/10/31 10:17:03;;;;;;;44.72;22.98;;;;;;;21.14;55.19;101809.19;4931041;28;96994;-72
2022/10/31 10:19:43;;;;;;;40.50;21.75;;;;;;;21.31;54.92;101812.59;4928796;28;98068;-71
2022/10/31 10:22:16;;;;;;;42.65;22.02;;;;;;;21.62;54.27;101802.56;4930723;28;98782;-71
2022/10/31 10:25:08;;;;;;;40.85;22.00;;;;;;;21.66;54.26;101802.25;4929924;28;96879;-72
2022/10/31 10:27:45;;;;;;;45.85;24.00;;;;;;;21.86;53.49;101803.63;4927387;28;96976;-72
2022/10/31 10:30:16;;;;;;;40.42;21.90;;;;;;;21.63;53.80;101797.09;4928745;28;98992;-72
2022/10/31 10:32:48;;;;;;;44.33;21.73;;;;;;;21.53;54.41;101801.31;4931731;28;98940;-72
2022/10/31 10:35:23;;;;;;;45.58;21.73;;;;;;;21.61;53.91;101798.13;4931316;28;97339;-71
2022/10/31 10:37:52;;;;;;;43.30;23.00;;;;;;;21.47;54.42;101794.50;4933952;28;97360;-71
2022/10/31 10:40:22;;;;;;;56.60;22.83;;;;;;;22.06;53.06;101794.25;4932564;28;99239;-73
2022/10/31 10:48:42;;;;;;;46.72;22.83;;;;;;;21.38;54.85;101786.19;4934031;28;97323;-71
2022/10/31 10:51:21;;;;;;;43.08;21.80;;;;;;;21.54;54.46;101786.91;4930340;28;100908;-72
2022/10/31 10:54:02;;;;;;;46.20;23.08;;;;;;;21.54;54.99;101786.91;4932451;28;98882;-72
2022/10/31 10:56:40;;;;;;;41.13;22.95;;;;;;;21.79;53.84;101787.03;4934011;28;96780;-72
2022/10/31 10:59:10;;;;;;;41.53;22.10;;;;;;;21.72;53.99;101790.25;4931614;28;98418;-71
2022/10/31 11:01:37;;;;;;;42.75;22.27;;;;;;;21.79;54.08;101792.41;4931599;28;99107;-72
2022/10/31 11:04:22;;;;;;;40.47;21.85;;;;;;;21.90;53.66;101789.03;4923621;28;100677;-72
2022/10/31 11:06:57;;;;;;;44.00;22.48;;;;;;;21.96;53.26;101791.34;4933031;28;97696;-73
2022/10/31 11:09:24;;;;;;;40.80;22.80;;;;;;;22.30;52.83;101781.84;4933514;28;97068;-71
2022/10/31 11:11:50;;;;;;;40.47;22.13;;;;;;;21.99;53.13;101774.97;4930549;28;99291;-72
2022/10/31 11:14:20;;;;;;;42.30;21.70;;;;;;;21.90;53.60;101778.25;4932248;28;99940;-71
2022/10/31 11:16:49;;;;;;;54.03;22.85;;;;;;;22.02;53.45;101776.59;4933315;28;97164;-72
2022/10/31 11:19:20;;;;;;;44.45;22.05;;;;;;;22.42;52.60;101778.31;4931751;28;96923;-72
2022/10/31 11:21:48;;;;;;;40.30;23.15;;;;;;;22.42;52.45;101778.31;4933641;28;99088;-72
2022/10/31 11:24:18;;;;;;;51.30;24.10;;;;;;;22.48;52.37;101772.50;4932027;28;99355;-72